createdAt,value
2023-01-05T00:00:56.170Z,20.95
2023-01-05T00:03:22.742Z,19.52
2023-01-05T00:05:49.216Z,20.13
2023-01-05T00:08:15.536Z,22.15
2023-01-05T00:11:00.508Z,20.48
2023-01-05T00:13:45.229Z,24.13
2023-01-05T00:19:18.511Z,20.13
2023-01-05T00:22:03.332Z,21.70
2023-01-05T00:24:31.714Z,17.17
2023-01-05T00:26:58.148Z,19.95
2023-01-05T00:29:24.538Z,17.20
2023-01-05T00:31:50.995Z,19.95
2023-01-05T00:34:17.360Z,20.60
2023-01-05T00:36:43.776Z,19.23
2023-01-05T00:39:10.247Z,21.67
2023-01-05T00:41:36.634Z,20.05
2023-01-05T00:44:02.979Z,21.80
2023-01-05T00:46:29.300Z,24.98
2023-01-05T00:48:55.670Z,21.67
2023-01-05T00:51:21.995Z,20.00
2023-01-05T00:53:48.789Z,21.38
2023-01-05T00:56:15.482Z,22.42
2023-01-05T00:58:41.880Z,24.65
2023-01-05T01:01:12.635Z,23.92
2023-01-05T01:03:39.544Z,21.75
2023-01-05T01:06:06.149Z,24.15
2023-01-05T01:08:32.506Z,19.27
2023-01-05T01:11:03.773Z,24.45
2023-01-05T01:13:30.139Z,25.63
2023-01-05T01:15:56.463Z,21.58
2023-01-05T01:18:23.359Z,26.17
2023-01-05T01:20:49.740Z,24.00
2023-01-05T01:23:16.084Z,22.48
2023-01-05T01:25:42.410Z,22.13
2023-01-05T01:28:08.754Z,28.98
2023-01-05T01:30:38.486Z,21.70
2023-01-05T01:33:05.337Z,23.88
2023-01-05T01:35:31.714Z,28.13
2023-01-05T01:37:58.068Z,20.42
2023-01-05T01:40:24.414Z,21.90
2023-01-05T01:42:50.770Z,23.00
2023-01-05T01:45:22.906Z,22.38
2023-01-05T01:47:58.148Z,25.55
2023-01-05T01:50:35.953Z,22.95
2023-01-05T01:53:07.787Z,23.50
2023-01-05T01:55:35.527Z,25.58
2023-01-05T01:58:05.399Z,27.60
2023-01-05T02:00:31.753Z,23.33
2023-01-05T02:02:58.387Z,25.23
2023-01-05T02:05:29.406Z,24.95
2023-01-05T02:07:55.903Z,26.25
2023-01-05T02:10:29.782Z,28.55
2023-01-05T02:13:35.185Z,25.52
2023-01-05T02:18:57.436Z,27.35
2023-01-05T02:21:55.460Z,25.73
2023-01-05T02:24:59.730Z,25.30
2023-01-05T02:27:30.591Z,29.63
2023-01-05T02:30:39.277Z,32.75
2023-01-05T02:33:25.201Z,30.40
2023-01-05T02:36:33.517Z,32.92
2023-01-05T02:39:16.970Z,31.60
2023-01-05T02:41:59.969Z,28.65
2023-01-05T02:44:30.728Z,31.20
2023-01-05T02:47:03.378Z,29.88
2023-01-05T02:49:33.056Z,30.60
2023-01-05T02:52:02.802Z,31.73
2023-01-05T02:54:38.855Z,32.42
2023-01-05T02:57:11.835Z,34.00
2023-01-05T02:59:47.660Z,30.05
2023-01-05T03:02:21.084Z,34.30
2023-01-05T03:04:59.154Z,35.55
2023-01-05T03:07:28.970Z,33.78
2023-01-05T03:09:55.428Z,38.05
2023-01-05T03:12:50.684Z,37.00
2023-01-05T03:15:28.385Z,37.30
2023-01-05T03:17:58.315Z,36.80
2023-01-05T03:20:28.037Z,36.47
2023-01-05T03:23:15.572Z,40.40
2023-01-05T03:26:01.302Z,36.40
2023-01-05T03:28:53.940Z,36.08
2023-01-05T03:31:46.178Z,35.92
2023-01-05T03:34:45.000Z,40.47
2023-01-05T03:37:16.868Z,32.53
2023-01-05T03:39:47.092Z,35.40
2023-01-05T03:42:15.398Z,38.78
2023-01-05T03:44:45.617Z,35.28
2023-01-05T03:47:12.876Z,37.55
2023-01-05T03:49:39.304Z,38.05
2023-01-05T03:52:05.674Z,39.25
2023-01-05T03:54:32.038Z,35.47
2023-01-05T03:56:58.361Z,40.15
2023-01-05T03:59:24.710Z,41.80
2023-01-05T04:01:51.151Z,43.78
2023-01-05T04:04:17.552Z,34.33
2023-01-05T04:06:43.870Z,39.20
2023-01-05T04:09:10.252Z,38.58
2023-01-05T04:11:36.667Z,31.50
2023-01-05T04:14:03.054Z,37.22
2023-01-05T04:16:29.405Z,35.45
2023-01-05T04:18:55.805Z,30.20
2023-01-05T04:21:22.179Z,34.78
2023-01-05T04:23:48.512Z,33.22
2023-01-05T04:26:14.910Z,40.75
2023-01-05T04:28:41.271Z,36.08
2023-01-05T04:31:07.717Z,46.63
2023-01-05T04:33:34.205Z,40.45
2023-01-05T04:36:00.641Z,40.83
2023-01-05T04:38:27.075Z,41.67
2023-01-05T04:40:53.400Z,41.88
2023-01-05T04:43:19.927Z,49.17
2023-01-05T04:45:48.781Z,43.35
2023-01-05T04:48:15.874Z,43.08
2023-01-05T04:50:42.708Z,40.78
2023-01-05T04:53:09.325Z,45.28
2023-01-05T04:55:35.651Z,44.80
2023-01-05T04:58:05.529Z,41.53
2023-01-05T05:00:34.808Z,41.92
2023-01-05T05:03:02.245Z,41.28
2023-01-05T05:05:28.687Z,42.72
2023-01-05T05:07:55.118Z,41.45
2023-01-05T05:10:21.529Z,44.05
2023-01-05T05:12:47.869Z,38.58
2023-01-05T05:15:14.260Z,40.95
2023-01-05T05:17:40.744Z,40.75
2023-01-05T05:20:07.769Z,42.40
2023-01-05T05:22:34.144Z,37.95
2023-01-05T05:25:00.514Z,44.10
2023-01-05T05:27:26.902Z,41.95
2023-01-05T05:29:53.278Z,41.35
2023-01-05T05:32:19.663Z,37.05
2023-01-05T05:34:46.033Z,43.42
2023-01-05T05:37:12.377Z,43.33
2023-01-05T05:39:38.736Z,38.38
2023-01-05T05:42:05.427Z,41.25
2023-01-05T05:44:31.802Z,41.53
2023-01-05T05:46:58.185Z,37.10
2023-01-05T05:49:24.656Z,44.25
2023-01-05T05:51:54.704Z,43.58
2023-01-05T05:54:44.683Z,42.67
2023-01-05T05:57:11.167Z,42.72
2023-01-05T05:59:37.499Z,41.67
2023-01-05T06:02:03.959Z,40.80
2023-01-05T06:04:30.481Z,44.72
2023-01-05T06:06:56.835Z,44.28
2023-01-05T06:09:24.884Z,45.40
2023-01-05T06:11:52.230Z,40.40
2023-01-05T06:14:18.622Z,44.90
2023-01-05T06:16:45.861Z,38.22
2023-01-05T06:19:12.366Z,37.92
2023-01-05T06:21:38.750Z,44.95
2023-01-05T06:24:05.550Z,41.88
2023-01-05T06:26:31.952Z,46.60
2023-01-05T06:28:58.374Z,44.67
2023-01-05T06:31:24.725Z,44.45
2023-01-05T06:33:51.092Z,41.00
2023-01-05T06:36:17.545Z,41.30
2023-01-05T06:38:44.173Z,40.30
2023-01-05T06:41:11.235Z,38.47
2023-01-05T06:43:38.765Z,45.67
2023-01-05T06:46:15.364Z,42.97
2023-01-05T06:48:41.757Z,40.10
2023-01-05T06:51:08.157Z,42.85
2023-01-05T06:53:34.568Z,44.58
2023-01-05T06:56:01.008Z,42.10
2023-01-05T06:58:27.758Z,39.75
2023-01-05T07:00:54.826Z,40.30
2023-01-05T07:03:23.687Z,42.47
2023-01-05T07:05:51.905Z,38.53
2023-01-05T07:08:18.316Z,41.35
2023-01-05T07:10:44.675Z,43.08
2023-01-05T07:13:11.055Z,40.55
2023-01-05T07:15:37.460Z,38.25
2023-01-05T07:18:04.004Z,37.25
2023-01-05T07:20:30.357Z,37.63
2023-01-05T07:22:56.769Z,40.90
2023-01-05T07:25:23.220Z,41.17
2023-01-05T07:27:52.436Z,40.67
2023-01-05T07:30:18.983Z,37.33
2023-01-05T07:32:45.428Z,39.58
2023-01-05T07:35:11.783Z,39.38
2023-01-05T07:37:38.169Z,39.15
2023-01-05T07:40:05.168Z,38.45
2023-01-05T07:42:31.721Z,42.05
2023-01-05T07:44:58.102Z,39.05
2023-01-05T07:47:24.440Z,40.13
2023-01-05T07:49:50.831Z,36.08
2023-01-05T07:52:17.695Z,39.72
2023-01-05T07:54:45.227Z,38.60
2023-01-05T07:57:11.654Z,36.75
2023-01-05T07:59:38.053Z,38.20
2023-01-05T08:02:04.545Z,41.35
2023-01-05T08:04:31.041Z,38.90
2023-01-05T08:06:57.508Z,39.63
2023-01-05T08:09:42.470Z,35.38
2023-01-05T08:12:08.982Z,39.75
2023-01-05T08:14:35.342Z,37.83
2023-01-05T08:17:01.720Z,40.90
2023-01-05T08:19:28.202Z,44.15
2023-01-05T08:21:54.621Z,41.40
2023-01-05T08:24:20.988Z,43.03
2023-01-05T08:26:49.877Z,46.17
2023-01-05T08:29:16.298Z,41.38
2023-01-05T08:31:42.872Z,39.95
2023-01-05T08:34:13.865Z,40.20
2023-01-05T08:36:41.319Z,42.13
2023-01-05T08:39:10.598Z,38.75
2023-01-05T08:41:39.090Z,39.20
2023-01-05T08:44:14.228Z,44.60
2023-01-05T08:46:40.632Z,39.05
2023-01-05T08:49:09.502Z,36.03
2023-01-05T08:51:36.454Z,35.83
2023-01-05T08:54:02.975Z,38.80
2023-01-05T08:56:36.432Z,49.42
2023-01-05T08:59:05.013Z,46.13
2023-01-05T09:01:31.624Z,44.72
2023-01-05T09:03:58.822Z,38.28
2023-01-05T09:06:25.590Z,37.78
2023-01-05T09:08:51.992Z,36.90
2023-01-05T09:11:22.016Z,38.15
2023-01-05T09:13:59.864Z,43.10
2023-01-05T09:19:16.140Z,34.53
2023-01-05T09:21:43.446Z,39.00
2023-01-05T09:24:14.309Z,39.15
2023-01-05T09:26:41.789Z,42.88
2023-01-05T09:29:08.994Z,38.60
2023-01-05T09:31:35.500Z,39.97
2023-01-05T09:34:02.007Z,34.15
2023-01-05T09:36:28.391Z,33.28
2023-01-05T09:38:56.973Z,40.15
2023-01-05T09:41:26.104Z,32.10
2023-01-05T09:43:57.519Z,35.65
2023-01-05T09:46:30.872Z,42.83
2023-01-05T09:49:00.948Z,34.73
2023-01-05T09:51:28.625Z,35.83
2023-01-05T09:53:55.303Z,34.10
2023-01-05T09:57:07.264Z,33.33
2023-01-05T09:59:41.351Z,36.25
2023-01-05T10:02:18.642Z,38.08
2023-01-05T10:04:47.133Z,36.22
2023-01-05T10:07:32.144Z,36.08
2023-01-05T10:10:05.668Z,40.25
2023-01-05T10:13:02.995Z,35.90
2023-01-05T10:15:44.737Z,25.63
2023-01-05T10:18:16.001Z,34.00
2023-01-05T10:21:00.459Z,42.05
2023-01-05T10:24:08.151Z,29.38
2023-01-05T10:27:24.759Z,31.50
2023-01-05T10:30:13.193Z,29.10
2023-01-05T10:33:26.028Z,34.60
2023-01-05T10:36:28.187Z,29.42
2023-01-05T10:39:26.002Z,31.98
2023-01-05T10:42:02.737Z,36.97
2023-01-05T10:44:51.189Z,25.30
2023-01-05T10:47:18.024Z,29.75
2023-01-05T10:49:46.443Z,30.75
2023-01-05T10:52:16.612Z,27.27
2023-01-05T10:54:59.218Z,27.98
2023-01-05T10:57:39.496Z,27.98
2023-01-05T11:00:06.095Z,28.15
2023-01-05T11:02:36.035Z,24.38
2023-01-05T11:05:17.996Z,21.98
2023-01-05T11:07:56.647Z,25.10
2023-01-05T11:10:33.505Z,29.95
2023-01-05T11:13:03.473Z,23.85
2023-01-05T11:15:41.047Z,28.70
2023-01-05T11:18:24.979Z,26.90
2023-01-05T11:21:16.816Z,26.33
2023-01-05T11:23:46.007Z,31.80
2023-01-05T11:26:18.524Z,28.23
2023-01-05T11:29:14.003Z,25.17
2023-01-05T11:31:58.702Z,27.55
2023-01-05T11:37:08.468Z,24.65
2023-01-05T11:39:41.139Z,30.25
2023-01-05T11:42:20.211Z,25.50
2023-01-05T11:45:20.588Z,26.53
2023-01-05T11:47:52.057Z,28.55
2023-01-05T11:50:25.063Z,24.75
2023-01-05T11:52:56.858Z,26.05
2023-01-05T11:55:30.417Z,24.17
2023-01-05T11:58:22.280Z,24.63
2023-01-05T12:01:01.801Z,31.25
2023-01-05T12:04:01.109Z,24.60
2023-01-05T12:06:46.895Z,25.92
2023-01-05T12:09:36.849Z,24.35
2023-01-05T12:12:14.952Z,24.80
2023-01-05T12:15:01.756Z,23.33
2023-01-05T12:17:43.537Z,32.63
2023-01-05T12:20:33.472Z,21.77
2023-01-05T12:23:32.188Z,28.92
2023-01-05T12:26:29.529Z,19.27
2023-01-05T12:35:58.288Z,23.25
2023-01-05T12:38:43.912Z,26.88
2023-01-05T12:41:24.340Z,28.63
2023-01-05T12:44:16.617Z,19.08
2023-01-05T12:46:59.869Z,31.13
2023-01-05T12:49:42.252Z,27.08
2023-01-05T12:52:17.148Z,26.20
2023-01-05T12:55:02.387Z,28.25
2023-01-05T12:57:36.688Z,25.15
2023-01-05T13:02:41.716Z,25.65
2023-01-05T13:05:21.635Z,27.83
2023-01-05T13:07:56.660Z,26.08
2023-01-05T13:10:30.577Z,27.80
2023-01-05T13:13:20.258Z,28.20
2023-01-05T13:16:49.310Z,24.80
2023-01-05T13:19:00.291Z,24.58
2023-01-05T13:21:28.483Z,26.48
2023-01-05T13:24:10.869Z,25.17
2023-01-05T13:26:38.584Z,28.05
2023-01-05T13:29:31.945Z,23.05
2023-01-05T13:32:24.216Z,25.98
2023-01-05T13:35:09.375Z,30.63
2023-01-05T13:37:55.359Z,29.35
2023-01-05T13:40:34.320Z,29.80
2023-01-05T13:46:02.981Z,27.40
2023-01-05T13:49:03.001Z,28.40
2023-01-05T13:51:52.737Z,33.05
2023-01-05T13:55:01.395Z,28.92
2023-01-05T13:57:42.515Z,27.30
2023-01-05T14:00:32.803Z,30.13
2023-01-05T14:03:07.996Z,30.50
2023-01-05T14:05:51.858Z,33.90
2023-01-05T14:08:32.345Z,33.95
2023-01-05T14:11:12.966Z,22.70
2023-01-05T14:13:54.174Z,26.48
2023-01-05T14:16:35.668Z,31.35
2023-01-05T14:19:11.356Z,29.15
2023-01-05T14:21:49.924Z,30.48
2023-01-05T14:24:42.176Z,25.85
2023-01-05T14:27:14.286Z,31.98
2023-01-05T14:29:47.013Z,30.05
2023-01-05T14:32:40.041Z,32.20
2023-01-05T14:35:22.932Z,35.53
2023-01-05T14:38:00.244Z,29.85
2023-01-05T14:40:32.609Z,31.90
2023-01-05T14:43:01.988Z,28.42
2023-01-05T14:45:31.500Z,32.80
2023-01-05T14:48:03.225Z,29.20
2023-01-05T14:50:40.761Z,33.38
2023-01-05T14:53:10.263Z,22.50
2023-01-05T14:55:40.058Z,36.30
2023-01-05T14:58:12.081Z,30.33
2023-01-05T15:00:58.378Z,32.70
2023-01-05T15:03:36.491Z,36.50
2023-01-05T15:06:06.293Z,31.27
2023-01-05T15:08:42.228Z,30.90
2023-01-05T15:11:50.159Z,36.97
2023-01-05T15:14:32.761Z,39.05
2023-01-05T15:17:02.173Z,34.55
2023-01-05T15:20:08.288Z,38.08
2023-01-05T15:22:57.734Z,27.73
2023-01-05T15:25:31.685Z,34.08
2023-01-05T15:28:17.004Z,30.15
2023-01-05T15:31:11.412Z,32.40
2023-01-05T15:33:46.129Z,40.10
2023-01-05T15:37:04.112Z,37.05
2023-01-05T15:39:45.098Z,38.00
2023-01-05T15:42:17.188Z,40.38
2023-01-05T15:44:49.090Z,38.58
2023-01-05T15:47:18.542Z,37.28
2023-01-05T15:49:45.949Z,32.67
2023-01-05T15:52:36.298Z,39.30
2023-01-05T15:55:11.929Z,40.47
2023-01-05T15:57:38.589Z,40.80
2023-01-05T16:00:20.822Z,37.20
2023-01-05T16:02:47.211Z,35.45
2023-01-05T16:05:17.330Z,40.22
2023-01-05T16:07:54.323Z,43.42
2023-01-05T16:10:29.653Z,44.20
2023-01-05T16:13:12.253Z,49.30
2023-01-05T16:15:41.357Z,49.42
2023-01-05T16:18:14.823Z,56.30
2023-01-05T16:20:46.491Z,59.17
2023-01-05T16:23:36.848Z,57.28
2023-01-05T16:26:03.959Z,60.45
2023-01-05T16:28:30.505Z,65.65
2023-01-05T16:30:57.113Z,63.67
2023-01-05T16:33:34.454Z,69.40
2023-01-05T16:36:13.345Z,65.03
2023-01-05T16:38:41.233Z,67.05
2023-01-05T16:41:19.376Z,78.45
2023-01-05T16:43:51.907Z,72.35
2023-01-05T16:46:20.583Z,72.65
2023-01-05T16:48:51.236Z,73.75
2023-01-05T16:51:36.138Z,72.55
2023-01-05T16:54:12.417Z,69.75
2023-01-05T16:56:58.569Z,66.55
2023-01-05T16:59:40.193Z,68.80
2023-01-05T17:02:45.385Z,71.45
2023-01-05T17:05:15.686Z,67.13
2023-01-05T17:07:44.041Z,68.00
2023-01-05T17:10:20.324Z,74.68
2023-01-05T17:12:53.925Z,74.55
2023-01-05T17:15:23.871Z,74.28
2023-01-05T17:17:50.951Z,77.43
2023-01-05T17:20:17.350Z,78.20
2023-01-05T17:22:44.065Z,83.05
2023-01-05T17:25:14.158Z,93.00
2023-01-05T17:27:41.901Z,79.93
2023-01-05T17:30:13.986Z,77.82
2023-01-05T17:32:40.347Z,76.53
2023-01-05T17:37:38.307Z,77.78
2023-01-05T17:40:07.154Z,78.32
2023-01-05T17:42:42.672Z,88.32
2023-01-05T17:45:12.814Z,74.45
2023-01-05T17:47:39.394Z,81.95
2023-01-05T17:50:06.493Z,80.20
2023-01-05T17:52:32.933Z,80.40
2023-01-05T17:54:59.287Z,79.13
2023-01-05T17:57:25.694Z,76.75
2023-01-05T17:59:52.285Z,79.18
2023-01-05T18:02:18.749Z,79.15
2023-01-05T18:04:45.103Z,77.32
2023-01-05T18:07:11.463Z,74.55
2023-01-05T18:09:38.012Z,73.45
2023-01-05T18:12:05.062Z,72.38
2023-01-05T18:14:31.523Z,79.63
2023-01-05T18:16:58.063Z,86.40
2023-01-05T18:19:24.601Z,85.90
2023-01-05T18:21:50.933Z,86.28
2023-01-05T18:24:17.333Z,97.65
2023-01-05T18:26:43.871Z,102.18
2023-01-05T18:29:10.291Z,96.55
2023-01-05T18:31:38.678Z,126.57
2023-01-05T18:34:08.115Z,102.20
2023-01-05T18:36:34.510Z,114.30
2023-01-05T18:39:00.902Z,122.50
2023-01-05T18:41:27.274Z,143.15
2023-01-05T18:43:53.644Z,137.85
2023-01-05T18:46:20.053Z,150.35
2023-01-05T18:48:51.165Z,154.50
2023-01-05T18:51:18.031Z,154.32
2023-01-05T18:53:44.447Z,158.20
2023-01-05T18:56:13.740Z,174.25
2023-01-05T18:58:40.703Z,177.57
2023-01-05T19:01:13.103Z,187.75
2023-01-05T19:03:40.118Z,172.98
2023-01-05T19:06:15.688Z,175.55
2023-01-05T19:08:43.252Z,163.75
2023-01-05T19:11:18.219Z,179.70
2023-01-05T19:13:45.403Z,163.77
2023-01-05T19:16:15.117Z,187.10
2023-01-05T19:18:43.336Z,184.05
2023-01-05T19:21:09.996Z,200.57
2023-01-05T19:23:36.455Z,186.50
2023-01-05T19:26:05.355Z,195.15
2023-01-05T19:28:34.664Z,211.88
2023-01-05T19:31:11.391Z,208.30
2023-01-05T19:33:39.091Z,201.02
2023-01-05T19:36:13.488Z,218.10
2023-01-05T19:38:40.648Z,216.68
2023-01-05T19:41:19.030Z,216.20
2023-01-05T19:43:51.193Z,205.52
2023-01-05T19:46:19.649Z,216.05
2023-01-05T19:48:47.306Z,218.88
2023-01-05T19:51:16.124Z,204.60
2023-01-05T19:53:44.486Z,217.65
2023-01-05T19:56:15.614Z,227.57
2023-01-05T19:58:45.916Z,213.95
2023-01-05T20:01:17.731Z,215.45
2023-01-05T20:03:46.655Z,227.30
2023-01-05T20:06:18.377Z,252.30
2023-01-05T20:08:52.632Z,257.52
2023-01-05T20:13:51.876Z,104.80
2023-01-05T20:16:21.778Z,182.90
2023-01-05T20:18:48.380Z,214.65
2023-01-05T20:21:14.902Z,220.57
2023-01-05T20:23:42.011Z,237.05
2023-01-05T20:26:12.842Z,271.00
2023-01-05T20:28:39.938Z,237.95
2023-01-05T20:31:23.855Z,258.98
2023-01-05T20:33:54.236Z,236.18
2023-01-05T20:36:22.347Z,226.60
2023-01-05T20:38:49.334Z,224.15
2023-01-05T20:41:22.424Z,245.23
2023-01-05T20:43:50.416Z,220.95
2023-01-05T20:46:18.989Z,198.98
2023-01-05T20:48:45.889Z,253.20
2023-01-05T20:51:14.256Z,241.35
2023-01-05T20:53:41.425Z,217.40
2023-01-05T20:56:13.325Z,209.65
2023-01-05T20:58:40.952Z,195.95
2023-01-05T21:01:10.831Z,209.73
2023-01-05T21:03:38.726Z,203.15
2023-01-05T21:06:06.868Z,196.60
2023-01-05T21:08:33.218Z,223.50
2023-01-05T21:11:01.343Z,213.77
2023-01-05T21:13:31.247Z,211.48
2023-01-05T21:16:05.599Z,196.88
2023-01-05T21:18:33.419Z,294.17
2023-01-05T21:20:59.945Z,177.85
2023-01-05T21:23:26.402Z,184.40
2023-01-05T21:26:06.797Z,146.10
2023-01-05T21:28:38.205Z,151.00
2023-01-05T21:31:10.035Z,143.35
2023-01-05T21:33:36.637Z,132.98
2023-01-05T21:36:04.568Z,121.03
2023-01-05T21:38:59.928Z,116.28
2023-01-05T21:41:17.859Z,113.05
2023-01-05T21:43:44.254Z,107.72
2023-01-05T21:46:12.010Z,112.90
2023-01-05T21:48:39.079Z,108.07
2023-01-05T21:51:24.329Z,107.38
2023-01-05T21:54:09.278Z,109.53
2023-01-05T21:56:39.911Z,86.75
2023-01-05T21:59:09.899Z,87.97
2023-01-05T22:01:38.397Z,126.60
2023-01-05T22:04:05.694Z,82.47
2023-01-05T22:06:32.289Z,71.28
2023-01-05T22:08:59.017Z,72.43
2023-01-05T22:11:25.446Z,70.10
2023-01-05T22:13:51.834Z,69.20
2023-01-05T22:16:18.237Z,66.82
2023-01-05T22:18:44.588Z,64.22
2023-01-05T22:21:10.998Z,59.03
2023-01-05T22:23:38.275Z,64.97
2023-01-05T22:26:09.968Z,61.22
2023-01-05T22:28:37.931Z,58.80
2023-01-05T22:31:16.164Z,56.40
2023-01-05T22:33:45.275Z,55.13
2023-01-05T22:36:13.716Z,56.15
2023-01-05T22:38:43.275Z,49.95
2023-01-05T22:41:12.857Z,54.50
2023-01-05T22:43:40.777Z,56.70
2023-01-05T22:46:10.287Z,55.95
2023-01-05T22:48:39.907Z,58.45
2023-01-05T22:51:09.953Z,51.67
2023-01-05T22:53:39.949Z,51.17
2023-01-05T22:56:09.161Z,52.47
2023-01-05T22:58:36.331Z,50.40
2023-01-05T23:01:20.020Z,51.15
2023-01-05T23:03:47.056Z,50.33
2023-01-05T23:06:13.847Z,53.50
2023-01-05T23:08:41.632Z,50.63
2023-01-05T23:11:10.871Z,51.92
2023-01-05T23:13:37.874Z,52.58
2023-01-05T23:16:05.596Z,51.55
2023-01-05T23:18:33.758Z,50.33
2023-01-05T23:21:02.924Z,51.53
2023-01-05T23:23:29.906Z,52.55
2023-01-05T23:25:56.340Z,49.60
2023-01-05T23:28:24.520Z,59.25
2023-01-05T23:30:53.776Z,52.10
2023-01-05T23:33:21.877Z,54.20
2023-01-05T23:35:50.932Z,54.40
2023-01-05T23:38:17.856Z,53.33
2023-01-05T23:40:49.240Z,54.90
2023-01-05T23:43:17.659Z,55.53
2023-01-05T23:45:44.514Z,49.40
2023-01-05T23:48:11.716Z,51.85
2023-01-05T23:50:43.327Z,52.45
2023-01-05T23:53:10.260Z,55.05
2023-01-05T23:55:36.858Z,52.25
2023-01-05T23:58:03.560Z,52.90
